sensor_id;sensor_type;location;lat;lon;timestamp;P1;durP1;ratioP1;P2;durP2;ratioP2
34988;SDS011;21192;40.182;44.516;2024-02-26T00:00:06;9.93;;;2.30;;
34988;SDS011;21192;40.182;44.516;2024-02-26T00:02:35;17.00;;;2.83;;
34988;SDS011;21192;40.182;44.516;2024-02-26T00:05:05;16.45;;;3.17;;
34988;SDS011;21192;40.182;44.516;2024-02-26T00:07:32;16.10;;;3.42;;
34988;SDS011;21192;40.182;44.516;2024-02-26T00:09:58;12.20;;;2.90;;
34988;SDS011;21192;40.182;44.516;2024-02-26T00:12:24;11.30;;;3.58;;
34988;SDS011;21192;40.182;44.516;2024-02-26T00:14:50;16.67;;;3.60;;
34988;SDS011;21192;40.182;44.516;2024-02-26T00:17:17;14.02;;;3.40;;
34988;SDS011;21192;40.182;44.516;2024-02-26T00:19:43;12.50;;;3.30;;
34988;SDS011;21192;40.182;44.516;2024-02-26T00:22:09;12.18;;;2.90;;
34988;SDS011;21192;40.182;44.516;2024-02-26T00:24:35;11.48;;;3.00;;
34988;SDS011;21192;40.182;44.516;2024-02-26T00:27:01;10.90;;;2.20;;
34988;SDS011;21192;40.182;44.516;2024-02-26T00:29:27;9.27;;;2.72;;
34988;SDS011;21192;40.182;44.516;2024-02-26T00:31:52;12.82;;;2.20;;
34988;SDS011;21192;40.182;44.516;2024-02-26T00:34:18;9.25;;;2.15;;
34988;SDS011;21192;40.182;44.516;2024-02-26T00:36:44;7.22;;;1.90;;
34988;SDS011;21192;40.182;44.516;2024-02-26T00:39:11;9.95;;;2.10;;
34988;SDS011;21192;40.182;44.516;2024-02-26T00:41:40;5.20;;;1.55;;
34988;SDS011;21192;40.182;44.516;2024-02-26T00:44:06;4.95;;;2.00;;
34988;SDS011;21192;40.182;44.516;2024-02-26T00:46:32;7.95;;;1.80;;
34988;SDS011;21192;40.182;44.516;2024-02-26T00:48:58;11.50;;;2.10;;
34988;SDS011;21192;40.182;44.516;2024-02-26T00:51:25;8.45;;;1.98;;
34988;SDS011;21192;40.182;44.516;2024-02-26T00:53:51;6.32;;;2.35;;
34988;SDS011;21192;40.182;44.516;2024-02-26T00:56:17;10.48;;;2.50;;
34988;SDS011;21192;40.182;44.516;2024-02-26T00:58:43;8.93;;;2.58;;
34988;SDS011;21192;40.182;44.516;2024-02-26T01:01:08;13.18;;;3.10;;
34988;SDS011;21192;40.182;44.516;2024-02-26T01:03:34;12.90;;;3.10;;
34988;SDS011;21192;40.182;44.516;2024-02-26T01:06:00;7.82;;;2.95;;
34988;SDS011;21192;40.182;44.516;2024-02-26T01:08:26;9.32;;;3.13;;
34988;SDS011;21192;40.182;44.516;2024-02-26T01:10:52;9.18;;;3.40;;
34988;SDS011;21192;40.182;44.516;2024-02-26T01:13:18;11.05;;;3.45;;
34988;SDS011;21192;40.182;44.516;2024-02-26T01:15:44;11.77;;;3.20;;
34988;SDS011;21192;40.182;44.516;2024-02-26T01:18:10;16.42;;;3.47;;
34988;SDS011;21192;40.182;44.516;2024-02-26T01:20:35;12.18;;;2.85;;
34988;SDS011;21192;40.182;44.516;2024-02-26T01:23:01;11.32;;;2.67;;
34988;SDS011;21192;40.182;44.516;2024-02-26T01:25:27;10.20;;;3.97;;
34988;SDS011;21192;40.182;44.516;2024-02-26T01:27:53;13.05;;;3.47;;
34988;SDS011;21192;40.182;44.516;2024-02-26T01:30:19;19.23;;;4.80;;
34988;SDS011;21192;40.182;44.516;2024-02-26T01:32:45;11.93;;;3.65;;
34988;SDS011;21192;40.182;44.516;2024-02-26T01:35:11;7.07;;;2.97;;
34988;SDS011;21192;40.182;44.516;2024-02-26T01:37:37;13.15;;;3.70;;
34988;SDS011;21192;40.182;44.516;2024-02-26T01:40:03;10.48;;;3.28;;
34988;SDS011;21192;40.182;44.516;2024-02-26T01:42:32;9.77;;;3.67;;
34988;SDS011;21192;40.182;44.516;2024-02-26T01:44:58;10.30;;;3.45;;
34988;SDS011;21192;40.182;44.516;2024-02-26T01:47:24;11.38;;;2.88;;
34988;SDS011;21192;40.182;44.516;2024-02-26T01:49:52;10.63;;;3.85;;
34988;SDS011;21192;40.182;44.516;2024-02-26T01:52:19;8.43;;;3.28;;
34988;SDS011;21192;40.182;44.516;2024-02-26T01:54:46;8.57;;;3.67;;
34988;SDS011;21192;40.182;44.516;2024-02-26T01:57:13;10.65;;;3.88;;
34988;SDS011;21192;40.182;44.516;2024-02-26T01:59:39;12.48;;;3.40;;
34988;SDS011;21192;40.182;44.516;2024-02-26T02:02:07;10.27;;;3.78;;
34988;SDS011;21192;40.182;44.516;2024-02-26T02:04:35;9.30;;;3.33;;
34988;SDS011;21192;40.182;44.516;2024-02-26T02:07:02;12.25;;;3.25;;
34988;SDS011;21192;40.182;44.516;2024-02-26T02:09:28;10.63;;;3.75;;
34988;SDS011;21192;40.182;44.516;2024-02-26T02:11:54;9.80;;;3.42;;
34988;SDS011;21192;40.182;44.516;2024-02-26T02:14:21;8.20;;;3.38;;
34988;SDS011;21192;40.182;44.516;2024-02-26T02:16:47;9.15;;;3.42;;
34988;SDS011;21192;40.182;44.516;2024-02-26T02:19:13;15.13;;;4.03;;
34988;SDS011;21192;40.182;44.516;2024-02-26T02:21:39;10.50;;;3.80;;
34988;SDS011;21192;40.182;44.516;2024-02-26T02:24:05;8.50;;;3.50;;
34988;SDS011;21192;40.182;44.516;2024-02-26T02:26:31;11.48;;;4.03;;
34988;SDS011;21192;40.182;44.516;2024-02-26T02:28:57;9.88;;;3.88;;
34988;SDS011;21192;40.182;44.516;2024-02-26T02:31:23;10.45;;;4.15;;
34988;SDS011;21192;40.182;44.516;2024-02-26T02:33:49;15.77;;;3.63;;
34988;SDS011;21192;40.182;44.516;2024-02-26T02:36:16;11.35;;;4.28;;
34988;SDS011;21192;40.182;44.516;2024-02-26T02:38:51;9.15;;;3.60;;
34988;SDS011;21192;40.182;44.516;2024-02-26T02:41:17;9.32;;;3.65;;
34988;SDS011;21192;40.182;44.516;2024-02-26T02:43:43;9.77;;;4.30;;
34988;SDS011;21192;40.182;44.516;2024-02-26T02:46:09;9.25;;;3.75;;
34988;SDS011;21192;40.182;44.516;2024-02-26T02:48:38;9.68;;;3.72;;
34988;SDS011;21192;40.182;44.516;2024-02-26T02:51:04;12.40;;;4.53;;
34988;SDS011;21192;40.182;44.516;2024-02-26T02:53:30;8.82;;;3.78;;
34988;SDS011;21192;40.182;44.516;2024-02-26T02:55:56;11.13;;;3.75;;
34988;SDS011;21192;40.182;44.516;2024-02-26T02:58:22;8.23;;;4.13;;
34988;SDS011;21192;40.182;44.516;2024-02-26T03:00:48;10.52;;;4.00;;
34988;SDS011;21192;40.182;44.516;2024-02-26T03:03:14;10.65;;;4.40;;
34988;SDS011;21192;40.182;44.516;2024-02-26T03:05:39;9.02;;;3.97;;
34988;SDS011;21192;40.182;44.516;2024-02-26T03:08:05;11.80;;;4.95;;
34988;SDS011;21192;40.182;44.516;2024-02-26T03:10:31;13.07;;;4.55;;
34988;SDS011;21192;40.182;44.516;2024-02-26T03:12:57;10.48;;;4.40;;
34988;SDS011;21192;40.182;44.516;2024-02-26T03:15:23;10.07;;;4.68;;
34988;SDS011;21192;40.182;44.516;2024-02-26T03:17:49;13.32;;;5.07;;
34988;SDS011;21192;40.182;44.516;2024-02-26T03:20:15;11.13;;;5.20;;
34988;SDS011;21192;40.182;44.516;2024-02-26T03:22:43;12.35;;;4.70;;
34988;SDS011;21192;40.182;44.516;2024-02-26T03:25:09;12.27;;;4.80;;
34988;SDS011;21192;40.182;44.516;2024-02-26T03:27:35;16.58;;;4.82;;
34988;SDS011;21192;40.182;44.516;2024-02-26T03:30:01;11.80;;;4.68;;
34988;SDS011;21192;40.182;44.516;2024-02-26T03:32:28;13.40;;;5.40;;
34988;SDS011;21192;40.182;44.516;2024-02-26T03:34:54;9.82;;;4.25;;
34988;SDS011;21192;40.182;44.516;2024-02-26T03:37:21;15.65;;;5.63;;
34988;SDS011;21192;40.182;44.516;2024-02-26T03:39:47;10.35;;;4.72;;
34988;SDS011;21192;40.182;44.516;2024-02-26T03:42:12;11.48;;;4.93;;
34988;SDS011;21192;40.182;44.516;2024-02-26T03:44:38;13.82;;;5.80;;
34988;SDS011;21192;40.182;44.516;2024-02-26T03:47:04;10.70;;;5.07;;
34988;SDS011;21192;40.182;44.516;2024-02-26T03:49:30;13.45;;;5.53;;
34988;SDS011;21192;40.182;44.516;2024-02-26T03:51:56;11.00;;;3.95;;
34988;SDS011;21192;40.182;44.516;2024-02-26T03:54:22;17.42;;;6.00;;
34988;SDS011;21192;40.182;44.516;2024-02-26T03:56:48;14.20;;;5.18;;
34988;SDS011;21192;40.182;44.516;2024-02-26T03:59:14;15.55;;;5.45;;
34988;SDS011;21192;40.182;44.516;2024-02-26T04:01:44;15.88;;;5.57;;
34988;SDS011;21192;40.182;44.516;2024-02-26T04:04:13;10.82;;;5.97;;
34988;SDS011;21192;40.182;44.516;2024-02-26T04:06:39;15.30;;;5.88;;
34988;SDS011;21192;40.182;44.516;2024-02-26T04:09:05;14.55;;;6.05;;
34988;SDS011;21192;40.182;44.516;2024-02-26T04:11:31;14.27;;;5.40;;
34988;SDS011;21192;40.182;44.516;2024-02-26T04:13:57;16.77;;;5.60;;
34988;SDS011;21192;40.182;44.516;2024-02-26T04:16:23;13.52;;;5.75;;
34988;SDS011;21192;40.182;44.516;2024-02-26T04:18:48;19.30;;;5.60;;
34988;SDS011;21192;40.182;44.516;2024-02-26T04:21:14;15.27;;;5.25;;
34988;SDS011;21192;40.182;44.516;2024-02-26T04:23:40;13.80;;;5.70;;
34988;SDS011;21192;40.182;44.516;2024-02-26T04:26:06;17.13;;;5.15;;
34988;SDS011;21192;40.182;44.516;2024-02-26T04:28:32;18.20;;;5.07;;
34988;SDS011;21192;40.182;44.516;2024-02-26T04:30:58;14.90;;;6.30;;
34988;SDS011;21192;40.182;44.516;2024-02-26T04:33:24;21.08;;;6.55;;
34988;SDS011;21192;40.182;44.516;2024-02-26T04:35:49;16.63;;;6.70;;
34988;SDS011;21192;40.182;44.516;2024-02-26T04:38:15;15.90;;;7.13;;
34988;SDS011;21192;40.182;44.516;2024-02-26T04:40:41;17.52;;;6.68;;
34988;SDS011;21192;40.182;44.516;2024-02-26T04:43:07;20.88;;;7.65;;
34988;SDS011;21192;40.182;44.516;2024-02-26T04:45:33;20.95;;;8.25;;
34988;SDS011;21192;40.182;44.516;2024-02-26T04:47:59;20.70;;;8.40;;
34988;SDS011;21192;40.182;44.516;2024-02-26T04:50:25;20.80;;;8.63;;
34988;SDS011;21192;40.182;44.516;2024-02-26T04:52:51;20.90;;;8.43;;
34988;SDS011;21192;40.182;44.516;2024-02-26T04:55:17;19.98;;;8.65;;
34988;SDS011;21192;40.182;44.516;2024-02-26T04:57:42;30.35;;;10.63;;
34988;SDS011;21192;40.182;44.516;2024-02-26T05:00:08;30.17;;;10.63;;
34988;SDS011;21192;40.182;44.516;2024-02-26T05:02:35;27.10;;;10.65;;
34988;SDS011;21192;40.182;44.516;2024-02-26T05:05:04;25.85;;;9.93;;
34988;SDS011;21192;40.182;44.516;2024-02-26T05:07:30;26.60;;;10.38;;
34988;SDS011;21192;40.182;44.516;2024-02-26T05:09:57;37.60;;;11.02;;
34988;SDS011;21192;40.182;44.516;2024-02-26T05:12:23;36.97;;;10.25;;
34988;SDS011;21192;40.182;44.516;2024-02-26T05:14:49;22.27;;;9.70;;
34988;SDS011;21192;40.182;44.516;2024-02-26T05:17:15;30.38;;;10.70;;
34988;SDS011;21192;40.182;44.516;2024-02-26T05:19:40;33.65;;;11.93;;
34988;SDS011;21192;40.182;44.516;2024-02-26T05:22:06;29.58;;;11.10;;
34988;SDS011;21192;40.182;44.516;2024-02-26T05:24:32;27.42;;;10.02;;
34988;SDS011;21192;40.182;44.516;2024-02-26T05:26:59;21.77;;;9.25;;
34988;SDS011;21192;40.182;44.516;2024-02-26T05:29:25;22.95;;;10.57;;
34988;SDS011;21192;40.182;44.516;2024-02-26T05:31:51;22.70;;;9.82;;
34988;SDS011;21192;40.182;44.516;2024-02-26T05:34:19;28.52;;;9.48;;
34988;SDS011;21192;40.182;44.516;2024-02-26T05:36:45;24.05;;;9.50;;
34988;SDS011;21192;40.182;44.516;2024-02-26T05:39:11;20.83;;;9.10;;
34988;SDS011;21192;40.182;44.516;2024-02-26T05:41:37;19.25;;;8.48;;
34988;SDS011;21192;40.182;44.516;2024-02-26T05:44:03;20.58;;;9.93;;
34988;SDS011;21192;40.182;44.516;2024-02-26T05:46:29;19.23;;;9.60;;
34988;SDS011;21192;40.182;44.516;2024-02-26T05:48:55;23.15;;;9.02;;
34988;SDS011;21192;40.182;44.516;2024-02-26T05:51:21;22.15;;;8.80;;
34988;SDS011;21192;40.182;44.516;2024-02-26T05:53:46;21.85;;;8.95;;
34988;SDS011;21192;40.182;44.516;2024-02-26T05:56:18;22.95;;;10.15;;
34988;SDS011;21192;40.182;44.516;2024-02-26T05:58:45;21.40;;;9.13;;
34988;SDS011;21192;40.182;44.516;2024-02-26T06:01:11;20.38;;;9.27;;
34988;SDS011;21192;40.182;44.516;2024-02-26T06:03:37;24.52;;;9.75;;
34988;SDS011;21192;40.182;44.516;2024-02-26T06:06:03;23.98;;;10.57;;
34988;SDS011;21192;40.182;44.516;2024-02-26T06:08:31;26.13;;;10.32;;
34988;SDS011;21192;40.182;44.516;2024-02-26T06:10:56;23.30;;;10.90;;
34988;SDS011;21192;40.182;44.516;2024-02-26T06:13:22;26.23;;;11.10;;
34988;SDS011;21192;40.182;44.516;2024-02-26T06:15:48;29.98;;;11.80;;
34988;SDS011;21192;40.182;44.516;2024-02-26T06:18:14;27.48;;;10.50;;
34988;SDS011;21192;40.182;44.516;2024-02-26T06:29:13;17.35;;;6.78;;
34988;SDS011;21192;40.182;44.516;2024-02-26T06:31:40;19.65;;;5.88;;
34988;SDS011;21192;40.182;44.516;2024-02-26T06:34:06;19.05;;;6.85;;
34988;SDS011;21192;40.182;44.516;2024-02-26T06:36:32;13.23;;;4.88;;
34988;SDS011;21192;40.182;44.516;2024-02-26T06:38:58;17.08;;;5.57;;
34988;SDS011;21192;40.182;44.516;2024-02-26T06:41:24;20.77;;;7.25;;
34988;SDS011;21192;40.182;44.516;2024-02-26T06:43:53;20.42;;;7.45;;
34988;SDS011;21192;40.182;44.516;2024-02-26T06:46:19;19.65;;;7.97;;
34988;SDS011;21192;40.182;44.516;2024-02-26T06:48:45;13.85;;;6.22;;
34988;SDS011;21192;40.182;44.516;2024-02-26T06:51:11;15.60;;;6.13;;
34988;SDS011;21192;40.182;44.516;2024-02-26T06:53:37;10.55;;;4.72;;
34988;SDS011;21192;40.182;44.516;2024-02-26T06:56:02;10.30;;;4.60;;
34988;SDS011;21192;40.182;44.516;2024-02-26T06:58:29;17.05;;;3.90;;
34988;SDS011;21192;40.182;44.516;2024-02-26T07:00:55;13.77;;;4.47;;
34988;SDS011;21192;40.182;44.516;2024-02-26T07:03:21;15.98;;;5.13;;
34988;SDS011;21192;40.182;44.516;2024-02-26T07:05:48;21.60;;;6.50;;
34988;SDS011;21192;40.182;44.516;2024-02-26T07:08:13;20.00;;;5.72;;
34988;SDS011;21192;40.182;44.516;2024-02-26T07:10:39;23.33;;;7.10;;
34988;SDS011;21192;40.182;44.516;2024-02-26T07:13:05;23.50;;;6.13;;
34988;SDS011;21192;40.182;44.516;2024-02-26T07:15:31;11.90;;;5.13;;
34988;SDS011;21192;40.182;44.516;2024-02-26T07:17:58;10.93;;;4.75;;
34988;SDS011;21192;40.182;44.516;2024-02-26T07:20:28;10.32;;;5.00;;
34988;SDS011;21192;40.182;44.516;2024-02-26T07:22:55;12.57;;;4.00;;
34988;SDS011;21192;40.182;44.516;2024-02-26T07:25:21;10.07;;;3.90;;
34988;SDS011;21192;40.182;44.516;2024-02-26T07:27:47;12.23;;;5.30;;
34988;SDS011;21192;40.182;44.516;2024-02-26T07:30:13;9.05;;;3.80;;
34988;SDS011;21192;40.182;44.516;2024-02-26T07:32:39;10.35;;;4.57;;
34988;SDS011;21192;40.182;44.516;2024-02-26T07:35:05;12.88;;;4.47;;
34988;SDS011;21192;40.182;44.516;2024-02-26T07:37:31;13.20;;;5.15;;
34988;SDS011;21192;40.182;44.516;2024-02-26T07:39:57;14.48;;;5.60;;
34988;SDS011;21192;40.182;44.516;2024-02-26T07:42:23;14.07;;;6.03;;
34988;SDS011;21192;40.182;44.516;2024-02-26T07:44:50;27.23;;;7.65;;
34988;SDS011;21192;40.182;44.516;2024-02-26T07:47:16;16.52;;;5.90;;
34988;SDS011;21192;40.182;44.516;2024-02-26T07:49:42;9.75;;;4.57;;
34988;SDS011;21192;40.182;44.516;2024-02-26T07:52:08;12.07;;;4.40;;
34988;SDS011;21192;40.182;44.516;2024-02-26T07:54:33;15.00;;;3.72;;
34988;SDS011;21192;40.182;44.516;2024-02-26T07:56:59;7.97;;;3.53;;
34988;SDS011;21192;40.182;44.516;2024-02-26T07:59:26;12.57;;;4.03;;
34988;SDS011;21192;40.182;44.516;2024-02-26T08:01:52;10.40;;;4.35;;
34988;SDS011;21192;40.182;44.516;2024-02-26T08:04:18;32.67;;;12.95;;
34988;SDS011;21192;40.182;44.516;2024-02-26T08:06:44;7.30;;;3.50;;
34988;SDS011;21192;40.182;44.516;2024-02-26T08:09:10;11.35;;;4.32;;
34988;SDS011;21192;40.182;44.516;2024-02-26T08:11:37;12.00;;;4.47;;
34988;SDS011;21192;40.182;44.516;2024-02-26T08:14:03;13.05;;;4.53;;
34988;SDS011;21192;40.182;44.516;2024-02-26T08:16:29;12.40;;;4.78;;
34988;SDS011;21192;40.182;44.516;2024-02-26T08:18:55;12.68;;;4.47;;
34988;SDS011;21192;40.182;44.516;2024-02-26T08:21:21;10.50;;;4.10;;
34988;SDS011;21192;40.182;44.516;2024-02-26T08:23:47;12.05;;;5.10;;
34988;SDS011;21192;40.182;44.516;2024-02-26T08:26:13;6.53;;;3.47;;
34988;SDS011;21192;40.182;44.516;2024-02-26T08:28:39;12.73;;;4.85;;
34988;SDS011;21192;40.182;44.516;2024-02-26T08:31:05;13.70;;;5.30;;
34988;SDS011;21192;40.182;44.516;2024-02-26T08:33:32;13.82;;;4.95;;
34988;SDS011;21192;40.182;44.516;2024-02-26T08:36:03;26.48;;;6.43;;
34988;SDS011;21192;40.182;44.516;2024-02-26T08:38:30;68.25;;;13.65;;
34988;SDS011;21192;40.182;44.516;2024-02-26T08:40:56;29.60;;;8.27;;
34988;SDS011;21192;40.182;44.516;2024-02-26T08:43:22;20.48;;;5.90;;
34988;SDS011;21192;40.182;44.516;2024-02-26T08:45:48;14.50;;;5.10;;
34988;SDS011;21192;40.182;44.516;2024-02-26T08:48:13;10.32;;;3.92;;
34988;SDS011;21192;40.182;44.516;2024-02-26T08:50:40;15.88;;;6.13;;
34988;SDS011;21192;40.182;44.516;2024-02-26T08:53:06;26.08;;;6.22;;
34988;SDS011;21192;40.182;44.516;2024-02-26T08:55:32;13.50;;;5.18;;
34988;SDS011;21192;40.182;44.516;2024-02-26T08:57:58;12.52;;;6.55;;
34988;SDS011;21192;40.182;44.516;2024-02-26T09:00:24;14.35;;;4.88;;
34988;SDS011;21192;40.182;44.516;2024-02-26T09:02:50;11.55;;;5.22;;
34988;SDS011;21192;40.182;44.516;2024-02-26T09:05:16;12.50;;;4.40;;
34988;SDS011;21192;40.182;44.516;2024-02-26T09:07:42;13.15;;;5.32;;
34988;SDS011;21192;40.182;44.516;2024-02-26T09:10:08;24.10;;;6.55;;
34988;SDS011;21192;40.182;44.516;2024-02-26T09:12:35;15.95;;;6.03;;
34988;SDS011;21192;40.182;44.516;2024-02-26T09:15:02;17.90;;;6.35;;
34988;SDS011;21192;40.182;44.516;2024-02-26T09:17:29;14.40;;;5.70;;
34988;SDS011;21192;40.182;44.516;2024-02-26T09:19:54;14.95;;;5.95;;
34988;SDS011;21192;40.182;44.516;2024-02-26T09:22:20;13.63;;;7.10;;
34988;SDS011;21192;40.182;44.516;2024-02-26T09:24:46;16.73;;;6.75;;
34988;SDS011;21192;40.182;44.516;2024-02-26T09:27:12;10.43;;;4.45;;
34988;SDS011;21192;40.182;44.516;2024-02-26T09:29:38;11.02;;;4.85;;
34988;SDS011;21192;40.182;44.516;2024-02-26T09:32:04;11.35;;;5.00;;
34988;SDS011;21192;40.182;44.516;2024-02-26T09:34:30;11.80;;;5.60;;
34988;SDS011;21192;40.182;44.516;2024-02-26T09:36:56;11.90;;;5.10;;
34988;SDS011;21192;40.182;44.516;2024-02-26T09:39:22;11.23;;;5.07;;
34988;SDS011;21192;40.182;44.516;2024-02-26T09:41:48;18.15;;;5.60;;
34988;SDS011;21192;40.182;44.516;2024-02-26T09:44:15;12.15;;;5.07;;
34988;SDS011;21192;40.182;44.516;2024-02-26T09:46:49;21.80;;;5.68;;
34988;SDS011;21192;40.182;44.516;2024-02-26T09:49:18;15.05;;;7.30;;
34988;SDS011;21192;40.182;44.516;2024-02-26T09:51:47;16.13;;;6.07;;
34988;SDS011;21192;40.182;44.516;2024-02-26T09:54:15;14.65;;;5.63;;
34988;SDS011;21192;40.182;44.516;2024-02-26T09:56:42;13.90;;;5.57;;
34988;SDS011;21192;40.182;44.516;2024-02-26T09:59:10;13.85;;;5.60;;
34988;SDS011;21192;40.182;44.516;2024-02-26T10:01:42;15.88;;;6.50;;
34988;SDS011;21192;40.182;44.516;2024-02-26T10:04:09;12.18;;;5.35;;
34988;SDS011;21192;40.182;44.516;2024-02-26T10:06:36;18.00;;;6.15;;
34988;SDS011;21192;40.182;44.516;2024-02-26T10:09:03;14.07;;;5.93;;
34988;SDS011;21192;40.182;44.516;2024-02-26T10:11:32;25.73;;;7.90;;
34988;SDS011;21192;40.182;44.516;2024-02-26T10:13:58;26.50;;;6.95;;
34988;SDS011;21192;40.182;44.516;2024-02-26T10:16:27;21.23;;;6.47;;
34988;SDS011;21192;40.182;44.516;2024-02-26T10:18:54;16.85;;;6.88;;
34988;SDS011;21192;40.182;44.516;2024-02-26T10:21:20;10.85;;;5.57;;
34988;SDS011;21192;40.182;44.516;2024-02-26T10:23:46;13.15;;;6.45;;
34988;SDS011;21192;40.182;44.516;2024-02-26T10:26:13;17.50;;;6.28;;
34988;SDS011;21192;40.182;44.516;2024-02-26T10:28:44;13.52;;;6.40;;
34988;SDS011;21192;40.182;44.516;2024-02-26T10:31:10;21.15;;;7.40;;
34988;SDS011;21192;40.182;44.516;2024-02-26T10:33:38;14.80;;;6.20;;
34988;SDS011;21192;40.182;44.516;2024-02-26T10:36:05;12.95;;;5.75;;
34988;SDS011;21192;40.182;44.516;2024-02-26T10:38:34;16.40;;;7.00;;
34988;SDS011;21192;40.182;44.516;2024-02-26T10:41:07;16.52;;;6.30;;
34988;SDS011;21192;40.182;44.516;2024-02-26T10:43:39;15.45;;;5.65;;
34988;SDS011;21192;40.182;44.516;2024-02-26T10:46:07;15.15;;;6.40;;
34988;SDS011;21192;40.182;44.516;2024-02-26T10:48:33;11.80;;;5.53;;
34988;SDS011;21192;40.182;44.516;2024-02-26T10:50:59;17.30;;;6.03;;
34988;SDS011;21192;40.182;44.516;2024-02-26T10:53:26;13.95;;;6.57;;
34988;SDS011;21192;40.182;44.516;2024-02-26T10:55:57;15.32;;;5.25;;
34988;SDS011;21192;40.182;44.516;2024-02-26T10:58:26;14.85;;;6.03;;
34988;SDS011;21192;40.182;44.516;2024-02-26T11:00:53;11.45;;;5.93;;
34988;SDS011;21192;40.182;44.516;2024-02-26T11:03:22;30.85;;;7.25;;
34988;SDS011;21192;40.182;44.516;2024-02-26T11:05:49;16.05;;;5.93;;
34988;SDS011;21192;40.182;44.516;2024-02-26T11:08:19;11.45;;;5.60;;
34988;SDS011;21192;40.182;44.516;2024-02-26T11:10:50;16.67;;;5.88;;
34988;SDS011;21192;40.182;44.516;2024-02-26T11:13:19;13.98;;;6.00;;
34988;SDS011;21192;40.182;44.516;2024-02-26T11:15:46;12.45;;;6.40;;
34988;SDS011;21192;40.182;44.516;2024-02-26T11:18:16;19.92;;;11.25;;
34988;SDS011;21192;40.182;44.516;2024-02-26T11:20:43;19.10;;;6.38;;
34988;SDS011;21192;40.182;44.516;2024-02-26T11:23:11;14.35;;;5.63;;
34988;SDS011;21192;40.182;44.516;2024-02-26T11:25:37;14.40;;;6.07;;
34988;SDS011;21192;40.182;44.516;2024-02-26T11:28:05;15.05;;;5.60;;
34988;SDS011;21192;40.182;44.516;2024-02-26T11:30:35;16.48;;;6.10;;
34988;SDS011;21192;40.182;44.516;2024-02-26T11:33:05;17.63;;;6.78;;
34988;SDS011;21192;40.182;44.516;2024-02-26T11:35:33;16.83;;;6.25;;
34988;SDS011;21192;40.182;44.516;2024-02-26T11:38:01;13.07;;;5.95;;
34988;SDS011;21192;40.182;44.516;2024-02-26T11:40:28;20.52;;;7.68;;
34988;SDS011;21192;40.182;44.516;2024-02-26T11:42:56;26.80;;;7.47;;
34988;SDS011;21192;40.182;44.516;2024-02-26T11:48:20;22.48;;;8.15;;
34988;SDS011;21192;40.182;44.516;2024-02-26T11:50:54;14.68;;;6.97;;
34988;SDS011;21192;40.182;44.516;2024-02-26T11:53:26;39.13;;;9.02;;
34988;SDS011;21192;40.182;44.516;2024-02-26T11:58:58;27.20;;;8.25;;
34988;SDS011;21192;40.182;44.516;2024-02-26T12:01:42;18.50;;;8.50;;
34988;SDS011;21192;40.182;44.516;2024-02-26T12:04:21;19.58;;;6.68;;
34988;SDS011;21192;40.182;44.516;2024-02-26T12:06:58;17.58;;;6.82;;
34988;SDS011;21192;40.182;44.516;2024-02-26T12:09:32;16.90;;;6.45;;
34988;SDS011;21192;40.182;44.516;2024-02-26T12:12:06;17.95;;;6.72;;
34988;SDS011;21192;40.182;44.516;2024-02-26T12:14:40;14.18;;;6.25;;
34988;SDS011;21192;40.182;44.516;2024-02-26T12:17:22;15.73;;;6.10;;
34988;SDS011;21192;40.182;44.516;2024-02-26T12:19:49;19.20;;;6.18;;
34988;SDS011;21192;40.182;44.516;2024-02-26T12:22:16;14.23;;;7.30;;
34988;SDS011;21192;40.182;44.516;2024-02-26T12:24:43;17.25;;;7.25;;
34988;SDS011;21192;40.182;44.516;2024-02-26T12:27:09;17.85;;;6.95;;
34988;SDS011;21192;40.182;44.516;2024-02-26T12:29:34;17.75;;;6.25;;
34988;SDS011;21192;40.182;44.516;2024-02-26T12:32:01;14.25;;;6.55;;
34988;SDS011;21192;40.182;44.516;2024-02-26T12:34:28;27.42;;;7.18;;
34988;SDS011;21192;40.182;44.516;2024-02-26T12:36:54;17.33;;;6.88;;
34988;SDS011;21192;40.182;44.516;2024-02-26T12:39:20;19.30;;;6.95;;
34988;SDS011;21192;40.182;44.516;2024-02-26T12:41:46;19.98;;;7.82;;
34988;SDS011;21192;40.182;44.516;2024-02-26T12:44:16;13.40;;;6.95;;
34988;SDS011;21192;40.182;44.516;2024-02-26T12:46:42;27.85;;;8.10;;
34988;SDS011;21192;40.182;44.516;2024-02-26T12:49:08;14.73;;;7.35;;
34988;SDS011;21192;40.182;44.516;2024-02-26T12:51:39;17.15;;;7.18;;
34988;SDS011;21192;40.182;44.516;2024-02-26T12:54:06;16.17;;;6.88;;
34988;SDS011;21192;40.182;44.516;2024-02-26T12:56:34;21.15;;;7.65;;
34988;SDS011;21192;40.182;44.516;2024-02-26T12:58:59;20.02;;;7.45;;
34988;SDS011;21192;40.182;44.516;2024-02-26T13:01:27;28.23;;;7.45;;
34988;SDS011;21192;40.182;44.516;2024-02-26T13:03:53;24.02;;;7.75;;
34988;SDS011;21192;40.182;44.516;2024-02-26T13:06:20;21.88;;;7.72;;
34988;SDS011;21192;40.182;44.516;2024-02-26T13:08:47;16.52;;;8.40;;
34988;SDS011;21192;40.182;44.516;2024-02-26T13:11:13;22.30;;;8.82;;
34988;SDS011;21192;40.182;44.516;2024-02-26T13:13:39;18.38;;;8.30;;
34988;SDS011;21192;40.182;44.516;2024-02-26T13:16:06;19.58;;;7.32;;
34988;SDS011;21192;40.182;44.516;2024-02-26T13:18:33;22.45;;;8.35;;
34988;SDS011;21192;40.182;44.516;2024-02-26T13:23:41;15.30;;;7.00;;
34988;SDS011;21192;40.182;44.516;2024-02-26T13:26:08;16.40;;;6.95;;
34988;SDS011;21192;40.182;44.516;2024-02-26T13:28:37;22.83;;;8.00;;
34988;SDS011;21192;40.182;44.516;2024-02-26T13:31:03;22.08;;;8.48;;
34988;SDS011;21192;40.182;44.516;2024-02-26T13:33:32;21.05;;;8.10;;
34988;SDS011;21192;40.182;44.516;2024-02-26T13:35:59;29.15;;;10.05;;
34988;SDS011;21192;40.182;44.516;2024-02-26T13:38:25;20.83;;;7.70;;
34988;SDS011;21192;40.182;44.516;2024-02-26T13:40:53;18.13;;;7.65;;
34988;SDS011;21192;40.182;44.516;2024-02-26T13:43:19;15.88;;;6.20;;
34988;SDS011;21192;40.182;44.516;2024-02-26T13:45:45;21.52;;;6.10;;
34988;SDS011;21192;40.182;44.516;2024-02-26T13:48:11;17.40;;;6.85;;
34988;SDS011;21192;40.182;44.516;2024-02-26T13:50:41;16.50;;;7.63;;
34988;SDS011;21192;40.182;44.516;2024-02-26T13:53:10;18.88;;;7.20;;
34988;SDS011;21192;40.182;44.516;2024-02-26T13:55:37;14.35;;;6.40;;
34988;SDS011;21192;40.182;44.516;2024-02-26T13:58:05;19.45;;;7.40;;
34988;SDS011;21192;40.182;44.516;2024-02-26T14:00:32;15.27;;;7.82;;
34988;SDS011;21192;40.182;44.516;2024-02-26T14:03:02;23.83;;;7.75;;
34988;SDS011;21192;40.182;44.516;2024-02-26T14:05:28;16.75;;;9.00;;
34988;SDS011;21192;40.182;44.516;2024-02-26T14:07:55;26.63;;;9.30;;
34988;SDS011;21192;40.182;44.516;2024-02-26T14:10:21;22.30;;;8.10;;
34988;SDS011;21192;40.182;44.516;2024-02-26T14:12:46;18.58;;;8.23;;
34988;SDS011;21192;40.182;44.516;2024-02-26T14:15:12;17.60;;;7.18;;
34988;SDS011;21192;40.182;44.516;2024-02-26T14:17:38;15.13;;;7.88;;
34988;SDS011;21192;40.182;44.516;2024-02-26T14:20:04;17.85;;;7.32;;
34988;SDS011;21192;40.182;44.516;2024-02-26T14:22:32;23.40;;;9.80;;
34988;SDS011;21192;40.182;44.516;2024-02-26T14:24:58;13.70;;;7.50;;
34988;SDS011;21192;40.182;44.516;2024-02-26T14:27:24;31.60;;;17.95;;
34988;SDS011;21192;40.182;44.516;2024-02-26T14:29:50;17.67;;;8.98;;
34988;SDS011;21192;40.182;44.516;2024-02-26T14:32:16;18.13;;;9.27;;
34988;SDS011;21192;40.182;44.516;2024-02-26T14:34:42;27.23;;;10.95;;